sensor_id;sensor_type;location;lat;lon;timestamp;P1;durP1;ratioP1;P2;durP2;ratioP2
58878;SDS011;44660;42.664;23.266;2023-08-06T08:13:52;5.40;;;2.78;;
58878;SDS011;44660;42.664;23.266;2023-08-06T08:16:17;5.90;;;4.53;;
58878;SDS011;44660;42.664;23.266;2023-08-06T08:18:43;6.30;;;2.90;;
58878;SDS011;44660;42.664;23.266;2023-08-06T08:21:08;3.70;;;2.85;;
58878;SDS011;44660;42.664;23.266;2023-08-06T08:23:34;3.00;;;2.75;;
58878;SDS011;44660;42.664;23.266;2023-08-06T08:25:59;4.10;;;2.30;;
58878;SDS011;44660;42.664;23.266;2023-08-06T08:28:27;3.47;;;2.85;;
58878;SDS011;44660;42.664;23.266;2023-08-06T08:30:52;4.35;;;2.90;;
58878;SDS011;44660;42.664;23.266;2023-08-06T08:33:18;3.78;;;2.90;;
58878;SDS011;44660;42.664;23.266;2023-08-06T08:35:45;3.90;;;3.50;;
58878;SDS011;44660;42.664;23.266;2023-08-06T08:38:11;3.38;;;2.83;;
58878;SDS011;44660;42.664;23.266;2023-08-06T08:40:37;3.33;;;2.47;;
58878;SDS011;44660;42.664;23.266;2023-08-06T08:43:12;3.40;;;2.70;;
58878;SDS011;44660;42.664;23.266;2023-08-06T08:45:39;4.47;;;3.10;;
58878;SDS011;44660;42.664;23.266;2023-08-06T08:48:06;4.10;;;3.10;;
58878;SDS011;44660;42.664;23.266;2023-08-06T08:50:33;6.00;;;2.85;;
58878;SDS011;44660;42.664;23.266;2023-08-06T08:52:59;7.15;;;3.53;;
58878;SDS011;44660;42.664;23.266;2023-08-06T08:55:25;4.65;;;2.95;;
58878;SDS011;44660;42.664;23.266;2023-08-06T08:57:51;4.43;;;3.00;;
58878;SDS011;44660;42.664;23.266;2023-08-06T09:00:16;6.53;;;3.10;;
58878;SDS011;44660;42.664;23.266;2023-08-06T09:02:42;3.92;;;2.88;;
58878;SDS011;44660;42.664;23.266;2023-08-06T09:05:09;4.90;;;3.03;;
58878;SDS011;44660;42.664;23.266;2023-08-06T09:07:37;3.78;;;3.03;;
58878;SDS011;44660;42.664;23.266;2023-08-06T09:10:07;3.20;;;2.80;;
58878;SDS011;44660;42.664;23.266;2023-08-06T09:12:36;5.80;;;2.80;;
58878;SDS011;44660;42.664;23.266;2023-08-06T09:15:02;3.30;;;2.80;;
58878;SDS011;44660;42.664;23.266;2023-08-06T09:17:28;3.03;;;2.70;;
58878;SDS011;44660;42.664;23.266;2023-08-06T09:19:54;3.08;;;2.78;;
58878;SDS011;44660;42.664;23.266;2023-08-06T09:22:19;3.55;;;2.90;;
58878;SDS011;44660;42.664;23.266;2023-08-06T09:24:45;6.57;;;2.63;;
58878;SDS011;44660;42.664;23.266;2023-08-06T09:27:11;4.93;;;2.90;;
58878;SDS011;44660;42.664;23.266;2023-08-06T09:29:41;3.20;;;2.60;;
58878;SDS011;44660;42.664;23.266;2023-08-06T09:32:07;3.28;;;2.65;;
58878;SDS011;44660;42.664;23.266;2023-08-06T09:34:33;2.60;;;2.17;;
58878;SDS011;44660;42.664;23.266;2023-08-06T09:36:58;3.85;;;2.60;;
58878;SDS011;44660;42.664;23.266;2023-08-06T09:39:27;5.20;;;3.30;;
58878;SDS011;44660;42.664;23.266;2023-08-06T09:41:57;7.40;;;2.90;;
58878;SDS011;44660;42.664;23.266;2023-08-06T09:44:24;3.03;;;2.72;;
58878;SDS011;44660;42.664;23.266;2023-08-06T09:46:52;3.65;;;2.90;;
58878;SDS011;44660;42.664;23.266;2023-08-06T09:49:19;2.78;;;2.10;;
58878;SDS011;44660;42.664;23.266;2023-08-06T09:51:46;4.25;;;2.17;;
58878;SDS011;44660;42.664;23.266;2023-08-06T09:54:15;2.97;;;2.00;;
58878;SDS011;44660;42.664;23.266;2023-08-06T09:56:42;3.22;;;1.83;;
58878;SDS011;44660;42.664;23.266;2023-08-06T09:59:07;3.25;;;2.10;;
58878;SDS011;44660;42.664;23.266;2023-08-06T10:01:34;4.00;;;1.92;;
58878;SDS011;44660;42.664;23.266;2023-08-06T10:04:01;2.60;;;2.05;;
58878;SDS011;44660;42.664;23.266;2023-08-06T10:06:28;2.40;;;1.93;;
58878;SDS011;44660;42.664;23.266;2023-08-06T10:08:54;3.15;;;2.05;;
58878;SDS011;44660;42.664;23.266;2023-08-06T10:11:23;4.03;;;2.60;;
58878;SDS011;44660;42.664;23.266;2023-08-06T10:13:52;2.72;;;2.20;;
58878;SDS011;44660;42.664;23.266;2023-08-06T10:16:22;3.53;;;1.80;;
58878;SDS011;44660;42.664;23.266;2023-08-06T10:18:48;4.07;;;2.20;;
58878;SDS011;44660;42.664;23.266;2023-08-06T10:21:14;6.55;;;2.42;;
58878;SDS011;44660;42.664;23.266;2023-08-06T10:23:41;3.22;;;2.30;;
58878;SDS011;44660;42.664;23.266;2023-08-06T10:26:06;4.95;;;2.00;;
58878;SDS011;44660;42.664;23.266;2023-08-06T10:28:38;3.80;;;2.08;;
58878;SDS011;44660;42.664;23.266;2023-08-06T10:31:04;2.78;;;2.08;;
58878;SDS011;44660;42.664;23.266;2023-08-06T10:33:40;3.45;;;2.00;;
58878;SDS011;44660;42.664;23.266;2023-08-06T10:36:10;5.22;;;2.13;;
58878;SDS011;44660;42.664;23.266;2023-08-06T10:38:43;4.90;;;1.92;;
58878;SDS011;44660;42.664;23.266;2023-08-06T10:41:14;2.83;;;1.88;;
58878;SDS011;44660;42.664;23.266;2023-08-06T10:44:07;4.30;;;2.00;;
58878;SDS011;44660;42.664;23.266;2023-08-06T10:46:34;1.90;;;1.70;;
58878;SDS011;44660;42.664;23.266;2023-08-06T10:49:01;3.40;;;2.20;;
58878;SDS011;44660;42.664;23.266;2023-08-06T10:51:27;5.38;;;2.20;;
58878;SDS011;44660;42.664;23.266;2023-08-06T10:53:52;2.42;;;1.98;;
58878;SDS011;44660;42.664;23.266;2023-08-06T10:56:19;2.20;;;2.00;;
58878;SDS011;44660;42.664;23.266;2023-08-06T10:58:50;2.60;;;1.95;;
58878;SDS011;44660;42.664;23.266;2023-08-06T11:01:17;2.55;;;2.33;;
58878;SDS011;44660;42.664;23.266;2023-08-06T11:03:43;2.72;;;2.42;;
58878;SDS011;44660;42.664;23.266;2023-08-06T11:06:10;3.57;;;3.20;;
58878;SDS011;44660;42.664;23.266;2023-08-06T11:08:46;3.70;;;2.17;;
58878;SDS011;44660;42.664;23.266;2023-08-06T11:11:14;2.60;;;2.30;;
58878;SDS011;44660;42.664;23.266;2023-08-06T11:13:40;5.38;;;2.15;;
58878;SDS011;44660;42.664;23.266;2023-08-06T11:16:13;2.70;;;2.38;;
58878;SDS011;44660;42.664;23.266;2023-08-06T11:18:41;4.07;;;2.42;;
58878;SDS011;44660;42.664;23.266;2023-08-06T11:21:07;5.85;;;3.10;;
58878;SDS011;44660;42.664;23.266;2023-08-06T11:23:33;11.05;;;3.30;;
58878;SDS011;44660;42.664;23.266;2023-08-06T11:25:59;10.77;;;2.92;;
58878;SDS011;44660;42.664;23.266;2023-08-06T11:28:25;4.65;;;3.03;;
58878;SDS011;44660;42.664;23.266;2023-08-06T11:30:51;4.53;;;2.67;;
58878;SDS011;44660;42.664;23.266;2023-08-06T11:33:23;6.93;;;2.90;;
58878;SDS011;44660;42.664;23.266;2023-08-06T11:35:52;9.13;;;3.03;;
58878;SDS011;44660;42.664;23.266;2023-08-06T11:38:20;5.50;;;3.40;;
58878;SDS011;44660;42.664;23.266;2023-08-06T11:40:45;6.65;;;3.17;;
58878;SDS011;44660;42.664;23.266;2023-08-06T11:43:12;7.05;;;3.20;;
58878;SDS011;44660;42.664;23.266;2023-08-06T11:45:38;5.05;;;3.20;;
58878;SDS011;44660;42.664;23.266;2023-08-06T11:48:03;6.85;;;3.60;;
58878;SDS011;44660;42.664;23.266;2023-08-06T11:50:30;8.50;;;3.88;;
58878;SDS011;44660;42.664;23.266;2023-08-06T11:52:57;6.80;;;3.80;;
58878;SDS011;44660;42.664;23.266;2023-08-06T11:55:24;5.75;;;3.45;;
58878;SDS011;44660;42.664;23.266;2023-08-06T11:57:50;3.88;;;3.50;;
58878;SDS011;44660;42.664;23.266;2023-08-06T12:00:16;4.70;;;3.22;;
58878;SDS011;44660;42.664;23.266;2023-08-06T12:02:45;5.93;;;3.60;;
58878;SDS011;44660;42.664;23.266;2023-08-06T12:05:14;3.60;;;3.30;;
58878;SDS011;44660;42.664;23.266;2023-08-06T12:07:50;3.00;;;2.70;;
58878;SDS011;44660;42.664;23.266;2023-08-06T12:10:18;4.55;;;3.60;;
58878;SDS011;44660;42.664;23.266;2023-08-06T12:12:47;6.85;;;3.85;;
58878;SDS011;44660;42.664;23.266;2023-08-06T12:15:13;4.80;;;3.72;;
58878;SDS011;44660;42.664;23.266;2023-08-06T12:17:40;3.60;;;3.30;;
58878;SDS011;44660;42.664;23.266;2023-08-06T12:20:06;4.20;;;3.60;;
58878;SDS011;44660;42.664;23.266;2023-08-06T12:22:32;4.70;;;3.38;;
58878;SDS011;44660;42.664;23.266;2023-08-06T12:25:03;7.97;;;3.92;;
58878;SDS011;44660;42.664;23.266;2023-08-06T12:27:33;6.40;;;4.22;;
58878;SDS011;44660;42.664;23.266;2023-08-06T12:30:02;4.70;;;3.78;;
58878;SDS011;44660;42.664;23.266;2023-08-06T12:32:28;5.30;;;3.92;;
58878;SDS011;44660;42.664;23.266;2023-08-06T12:34:54;5.97;;;4.03;;
58878;SDS011;44660;42.664;23.266;2023-08-06T12:37:20;5.43;;;4.10;;
58878;SDS011;44660;42.664;23.266;2023-08-06T12:39:46;5.55;;;4.32;;
58878;SDS011;44660;42.664;23.266;2023-08-06T12:42:12;7.13;;;4.50;;
58878;SDS011;44660;42.664;23.266;2023-08-06T12:44:37;5.43;;;4.32;;
58878;SDS011;44660;42.664;23.266;2023-08-06T12:47:03;4.75;;;4.10;;
58878;SDS011;44660;42.664;23.266;2023-08-06T12:49:28;5.30;;;4.40;;
58878;SDS011;44660;42.664;23.266;2023-08-06T12:51:54;4.32;;;3.90;;
58878;SDS011;44660;42.664;23.266;2023-08-06T12:54:22;6.53;;;3.80;;
58878;SDS011;44660;42.664;23.266;2023-08-06T12:56:48;5.18;;;4.35;;
58878;SDS011;44660;42.664;23.266;2023-08-06T12:59:14;4.78;;;3.75;;
58878;SDS011;44660;42.664;23.266;2023-08-06T13:01:40;5.05;;;3.83;;
58878;SDS011;44660;42.664;23.266;2023-08-06T13:04:06;6.65;;;3.72;;
58878;SDS011;44660;42.664;23.266;2023-08-06T13:06:32;4.80;;;3.60;;
58878;SDS011;44660;42.664;23.266;2023-08-06T13:09:02;5.95;;;3.67;;
58878;SDS011;44660;42.664;23.266;2023-08-06T13:11:28;4.68;;;3.47;;
58878;SDS011;44660;42.664;23.266;2023-08-06T13:13:54;5.22;;;3.80;;
58878;SDS011;44660;42.664;23.266;2023-08-06T13:16:19;4.50;;;3.45;;
58878;SDS011;44660;42.664;23.266;2023-08-06T13:18:45;6.95;;;4.25;;
58878;SDS011;44660;42.664;23.266;2023-08-06T13:21:10;4.80;;;4.35;;
58878;SDS011;44660;42.664;23.266;2023-08-06T13:23:35;4.43;;;3.97;;
58878;SDS011;44660;42.664;23.266;2023-08-06T13:26:01;5.63;;;3.90;;
58878;SDS011;44660;42.664;23.266;2023-08-06T13:28:27;5.00;;;4.38;;
58878;SDS011;44660;42.664;23.266;2023-08-06T13:30:52;4.53;;;4.05;;
58878;SDS011;44660;42.664;23.266;2023-08-06T13:33:18;4.72;;;3.70;;
58878;SDS011;44660;42.664;23.266;2023-08-06T13:35:43;6.57;;;3.88;;
58878;SDS011;44660;42.664;23.266;2023-08-06T13:38:09;7.40;;;4.18;;
58878;SDS011;44660;42.664;23.266;2023-08-06T13:40:34;4.80;;;4.25;;
58878;SDS011;44660;42.664;23.266;2023-08-06T13:43:00;4.88;;;3.92;;
58878;SDS011;44660;42.664;23.266;2023-08-06T13:45:25;4.95;;;4.25;;
58878;SDS011;44660;42.664;23.266;2023-08-06T13:47:51;5.38;;;3.88;;
58878;SDS011;44660;42.664;23.266;2023-08-06T13:50:17;4.82;;;3.80;;
58878;SDS011;44660;42.664;23.266;2023-08-06T13:52:42;4.25;;;3.67;;
58878;SDS011;44660;42.664;23.266;2023-08-06T13:55:08;7.00;;;4.40;;
58878;SDS011;44660;42.664;23.266;2023-08-06T13:57:34;4.50;;;4.03;;
58878;SDS011;44660;42.664;23.266;2023-08-06T14:00:00;6.55;;;4.18;;
58878;SDS011;44660;42.664;23.266;2023-08-06T14:02:25;5.05;;;3.72;;
58878;SDS011;44660;42.664;23.266;2023-08-06T14:04:54;5.10;;;4.15;;
58878;SDS011;44660;42.664;23.266;2023-08-06T14:07:20;6.05;;;3.95;;
58878;SDS011;44660;42.664;23.266;2023-08-06T14:09:46;4.72;;;4.10;;
58878;SDS011;44660;42.664;23.266;2023-08-06T14:12:12;4.15;;;3.75;;
58878;SDS011;44660;42.664;23.266;2023-08-06T14:14:38;4.13;;;3.63;;
58878;SDS011;44660;42.664;23.266;2023-08-06T14:17:03;6.93;;;4.40;;
58878;SDS011;44660;42.664;23.266;2023-08-06T14:19:28;3.95;;;3.60;;
58878;SDS011;44660;42.664;23.266;2023-08-06T14:21:54;5.53;;;3.58;;
58878;SDS011;44660;42.664;23.266;2023-08-06T14:24:20;3.88;;;3.55;;
58878;SDS011;44660;42.664;23.266;2023-08-06T14:26:46;3.83;;;3.05;;
58878;SDS011;44660;42.664;23.266;2023-08-06T14:29:11;4.13;;;3.10;;
58878;SDS011;44660;42.664;23.266;2023-08-06T14:31:38;6.93;;;3.17;;
58878;SDS011;44660;42.664;23.266;2023-08-06T14:34:04;7.50;;;3.20;;
58878;SDS011;44660;42.664;23.266;2023-08-06T14:36:29;4.55;;;2.95;;
58878;SDS011;44660;42.664;23.266;2023-08-06T14:38:55;6.60;;;3.22;;
58878;SDS011;44660;42.664;23.266;2023-08-06T14:41:21;4.13;;;2.83;;
58878;SDS011;44660;42.664;23.266;2023-08-06T14:43:46;2.55;;;2.20;;
58878;SDS011;44660;42.664;23.266;2023-08-06T14:46:12;4.05;;;1.90;;
58878;SDS011;44660;42.664;23.266;2023-08-06T14:48:38;3.90;;;2.22;;
58878;SDS011;44660;42.664;23.266;2023-08-06T14:51:04;2.85;;;2.00;;
58878;SDS011;44660;42.664;23.266;2023-08-06T14:53:29;3.85;;;3.05;;
58878;SDS011;44660;42.664;23.266;2023-08-06T14:55:55;2.13;;;1.92;;
58878;SDS011;44660;42.664;23.266;2023-08-06T14:58:20;3.00;;;1.98;;
58878;SDS011;44660;42.664;23.266;2023-08-06T15:00:46;2.63;;;2.20;;
58878;SDS011;44660;42.664;23.266;2023-08-06T15:03:11;3.90;;;2.00;;
58878;SDS011;44660;42.664;23.266;2023-08-06T15:05:37;2.47;;;2.00;;
58878;SDS011;44660;42.664;23.266;2023-08-06T15:08:02;5.45;;;2.10;;
58878;SDS011;44660;42.664;23.266;2023-08-06T15:10:28;3.22;;;1.73;;
58878;SDS011;44660;42.664;23.266;2023-08-06T15:12:54;1.70;;;1.60;;
58878;SDS011;44660;42.664;23.266;2023-08-06T15:15:19;3.17;;;2.00;;
58878;SDS011;44660;42.664;23.266;2023-08-06T15:17:45;6.03;;;2.15;;
58878;SDS011;44660;42.664;23.266;2023-08-06T15:20:11;2.30;;;1.70;;
58878;SDS011;44660;42.664;23.266;2023-08-06T15:22:37;2.60;;;2.10;;
58878;SDS011;44660;42.664;23.266;2023-08-06T15:25:02;4.88;;;2.80;;
58878;SDS011;44660;42.664;23.266;2023-08-06T15:27:29;3.58;;;2.08;;
58878;SDS011;44660;42.664;23.266;2023-08-06T15:29:54;2.85;;;2.17;;
58878;SDS011;44660;42.664;23.266;2023-08-06T15:32:20;4.20;;;2.60;;
58878;SDS011;44660;42.664;23.266;2023-08-06T15:34:47;8.82;;;4.55;;
58878;SDS011;44660;42.664;23.266;2023-08-06T15:37:13;3.30;;;2.85;;
58878;SDS011;44660;42.664;23.266;2023-08-06T15:39:39;4.63;;;3.30;;
58878;SDS011;44660;42.664;23.266;2023-08-06T15:42:05;4.30;;;2.90;;
58878;SDS011;44660;42.664;23.266;2023-08-06T15:44:31;3.90;;;2.63;;
58878;SDS011;44660;42.664;23.266;2023-08-06T15:46:56;6.60;;;2.95;;
58878;SDS011;44660;42.664;23.266;2023-08-06T15:49:22;3.88;;;2.30;;
58878;SDS011;44660;42.664;23.266;2023-08-06T15:51:48;5.40;;;2.50;;
58878;SDS011;44660;42.664;23.266;2023-08-06T15:54:13;1.88;;;1.20;;
58878;SDS011;44660;42.664;23.266;2023-08-06T15:56:39;1.75;;;1.00;;
58878;SDS011;44660;42.664;23.266;2023-08-06T15:59:20;3.05;;;1.20;;
58878;SDS011;44660;42.664;23.266;2023-08-06T16:01:50;1.88;;;1.05;;
58878;SDS011;44660;42.664;23.266;2023-08-06T16:04:15;0.90;;;0.73;;
58878;SDS011;44660;42.664;23.266;2023-08-06T16:06:41;1.63;;;1.40;;
58878;SDS011;44660;42.664;23.266;2023-08-06T16:09:07;7.47;;;5.78;;
58878;SDS011;44660;42.664;23.266;2023-08-06T16:11:33;4.78;;;2.30;;
58878;SDS011;44660;42.664;23.266;2023-08-06T16:13:58;3.78;;;1.00;;
58878;SDS011;44660;42.664;23.266;2023-08-06T16:16:24;6.93;;;5.03;;
58878;SDS011;44660;42.664;23.266;2023-08-06T16:18:50;2.83;;;2.03;;
58878;SDS011;44660;42.664;23.266;2023-08-06T16:21:15;2.33;;;1.70;;
58878;SDS011;44660;42.664;23.266;2023-08-06T16:23:40;10.70;;;6.68;;
58878;SDS011;44660;42.664;23.266;2023-08-06T16:26:07;4.65;;;2.35;;
58878;SDS011;44660;42.664;23.266;2023-08-06T16:28:32;5.05;;;1.50;;
58878;SDS011;44660;42.664;23.266;2023-08-06T16:30:57;5.25;;;2.55;;
58878;SDS011;44660;42.664;23.266;2023-08-06T16:33:23;4.65;;;2.30;;
58878;SDS011;44660;42.664;23.266;2023-08-06T16:35:49;4.50;;;2.83;;
58878;SDS011;44660;42.664;23.266;2023-08-06T16:38:14;3.78;;;2.35;;
58878;SDS011;44660;42.664;23.266;2023-08-06T16:40:40;5.80;;;2.72;;
58878;SDS011;44660;42.664;23.266;2023-08-06T16:43:06;5.45;;;2.90;;
58878;SDS011;44660;42.664;23.266;2023-08-06T16:45:32;1.88;;;1.20;;
58878;SDS011;44660;42.664;23.266;2023-08-06T16:48:03;1.10;;;0.95;;
58878;SDS011;44660;42.664;23.266;2023-08-06T16:50:29;3.28;;;1.27;;
58878;SDS011;44660;42.664;23.266;2023-08-06T16:52:55;2.17;;;0.90;;
58878;SDS011;44660;42.664;23.266;2023-08-06T16:55:22;2.50;;;1.10;;
58878;SDS011;44660;42.664;23.266;2023-08-06T16:57:47;2.22;;;1.00;;
58878;SDS011;44660;42.664;23.266;2023-08-06T17:00:13;1.73;;;1.10;;
58878;SDS011;44660;42.664;23.266;2023-08-06T17:02:38;1.08;;;0.90;;
58878;SDS011;44660;42.664;23.266;2023-08-06T17:05:04;1.80;;;0.88;;
58878;SDS011;44660;42.664;23.266;2023-08-06T17:07:30;1.52;;;1.10;;
58878;SDS011;44660;42.664;23.266;2023-08-06T17:09:56;2.20;;;1.02;;
58878;SDS011;44660;42.664;23.266;2023-08-06T17:12:22;1.98;;;1.10;;
58878;SDS011;44660;42.664;23.266;2023-08-06T17:14:47;1.83;;;1.33;;
58878;SDS011;44660;42.664;23.266;2023-08-06T17:17:13;2.53;;;1.52;;
58878;SDS011;44660;42.664;23.266;2023-08-06T17:19:38;6.38;;;3.13;;
58878;SDS011;44660;42.664;23.266;2023-08-06T17:22:04;2.90;;;1.67;;
58878;SDS011;44660;42.664;23.266;2023-08-06T17:24:30;1.38;;;1.00;;
58878;SDS011;44660;42.664;23.266;2023-08-06T17:26:55;5.60;;;1.30;;
58878;SDS011;44660;42.664;23.266;2023-08-06T17:29:24;3.17;;;1.13;;
58878;SDS011;44660;42.664;23.266;2023-08-06T17:31:50;2.40;;;0.90;;
58878;SDS011;44660;42.664;23.266;2023-08-06T17:34:16;1.15;;;1.02;;
58878;SDS011;44660;42.664;23.266;2023-08-06T17:36:42;2.70;;;1.20;;
58878;SDS011;44660;42.664;23.266;2023-08-06T17:39:07;1.67;;;1.13;;
58878;SDS011;44660;42.664;23.266;2023-08-06T17:41:33;2.50;;;0.98;;
58878;SDS011;44660;42.664;23.266;2023-08-06T17:43:58;1.98;;;0.93;;
58878;SDS011;44660;42.664;23.266;2023-08-06T17:46:23;4.20;;;1.00;;
58878;SDS011;44660;42.664;23.266;2023-08-06T17:48:49;2.90;;;1.50;;
58878;SDS011;44660;42.664;23.266;2023-08-06T17:51:14;10.35;;;5.65;;
58878;SDS011;44660;42.664;23.266;2023-08-06T17:53:40;4.32;;;2.80;;
58878;SDS011;44660;42.664;23.266;2023-08-06T17:56:06;2.53;;;1.20;;
58878;SDS011;44660;42.664;23.266;2023-08-06T17:58:31;2.95;;;1.15;;
58878;SDS011;44660;42.664;23.266;2023-08-06T18:00:57;2.17;;;1.10;;
58878;SDS011;44660;42.664;23.266;2023-08-06T18:03:22;4.15;;;1.00;;
58878;SDS011;44660;42.664;23.266;2023-08-06T18:05:53;1.75;;;1.00;;
58878;SDS011;44660;42.664;23.266;2023-08-06T18:08:21;2.47;;;0.80;;
58878;SDS011;44660;42.664;23.266;2023-08-06T18:10:47;2.33;;;1.30;;
58878;SDS011;44660;42.664;23.266;2023-08-06T18:13:12;0.85;;;0.68;;
58878;SDS011;44660;42.664;23.266;2023-08-06T18:15:38;1.38;;;0.70;;
58878;SDS011;44660;42.664;23.266;2023-08-06T18:18:03;1.55;;;0.55;;
58878;SDS011;44660;42.664;23.266;2023-08-06T18:20:29;1.52;;;0.77;;
58878;SDS011;44660;42.664;23.266;2023-08-06T18:22:55;1.00;;;0.65;;
58878;SDS011;44660;42.664;23.266;2023-08-06T18:25:20;3.75;;;0.70;;
58878;SDS011;44660;42.664;23.266;2023-08-06T18:27:46;1.83;;;0.60;;
58878;SDS011;44660;42.664;23.266;2023-08-06T18:30:12;1.02;;;0.60;;
58878;SDS011;44660;42.664;23.266;2023-08-06T18:32:37;1.10;;;0.63;;
58878;SDS011;44660;42.664;23.266;2023-08-06T18:35:03;1.83;;;0.70;;
58878;SDS011;44660;42.664;23.266;2023-08-06T18:37:28;2.63;;;0.68;;
58878;SDS011;44660;42.664;23.266;2023-08-06T18:39:54;1.88;;;0.80;;
58878;SDS011;44660;42.664;23.266;2023-08-06T18:42:26;2.15;;;0.60;;
58878;SDS011;44660;42.664;23.266;2023-08-06T18:44:52;2.08;;;1.67;;
58878;SDS011;44660;42.664;23.266;2023-08-06T18:47:17;6.15;;;4.20;;
58878;SDS011;44660;42.664;23.266;2023-08-06T18:49:43;6.35;;;4.63;;
58878;SDS011;44660;42.664;23.266;2023-08-06T18:52:08;1.70;;;1.27;;
58878;SDS011;44660;42.664;23.266;2023-08-06T18:54:34;1.10;;;0.80;;
58878;SDS011;44660;42.664;23.266;2023-08-06T18:56:59;2.83;;;0.88;;
58878;SDS011;44660;42.664;23.266;2023-08-06T18:59:24;4.07;;;0.90;;
58878;SDS011;44660;42.664;23.266;2023-08-06T19:01:51;1.48;;;0.88;;
58878;SDS011;44660;42.664;23.266;2023-08-06T19:04:16;1.42;;;0.80;;
58878;SDS011;44660;42.664;23.266;2023-08-06T19:06:41;2.22;;;1.15;;
58878;SDS011;44660;42.664;23.266;2023-08-06T19:09:07;2.45;;;0.70;;
58878;SDS011;44660;42.664;23.266;2023-08-06T19:11:33;3.45;;;1.00;;
58878;SDS011;44660;42.664;23.266;2023-08-06T19:13:58;1.55;;;1.25;;
58878;SDS011;44660;42.664;23.266;2023-08-06T19:16:23;3.03;;;0.85;;
58878;SDS011;44660;42.664;23.266;2023-08-06T19:18:51;3.58;;;0.90;;
58878;SDS011;44660;42.664;23.266;2023-08-06T19:21:16;2.65;;;1.42;;
58878;SDS011;44660;42.664;23.266;2023-08-06T19:23:42;4.72;;;0.85;;
58878;SDS011;44660;42.664;23.266;2023-08-06T19:26:07;1.45;;;0.70;;
58878;SDS011;44660;42.664;23.266;2023-08-06T19:28:34;2.60;;;0.70;;
58878;SDS011;44660;42.664;23.266;2023-08-06T19:30:59;4.68;;;0.60;;
58878;SDS011;44660;42.664;23.266;2023-08-06T19:33:25;1.95;;;0.50;;
58878;SDS011;44660;42.664;23.266;2023-08-06T19:35:51;6.55;;;4.57;;
58878;SDS011;44660;42.664;23.266;2023-08-06T19:38:18;4.15;;;1.50;;
58878;SDS011;44660;42.664;23.266;2023-08-06T19:40:48;1.00;;;0.50;;
58878;SDS011;44660;42.664;23.266;2023-08-06T19:43:15;0.68;;;0.38;;
58878;SDS011;44660;42.664;23.266;2023-08-06T19:45:46;1.98;;;0.30;;
58878;SDS011;44660;42.664;23.266;2023-08-06T19:48:13;0.52;;;0.25;;
58878;SDS011;44660;42.664;23.266;2023-08-06T19:50:38;1.52;;;0.30;;
58878;SDS011;44660;42.664;23.266;2023-08-06T19:53:04;0.47;;;0.20;;
58878;SDS011;44660;42.664;23.266;2023-08-06T19:55:30;0.50;;;0.20;;
58878;SDS011;44660;42.664;23.266;2023-08-06T19:57:56;1.58;;;0.40;;
58878;SDS011;44660;42.664;23.266;2023-08-06T20:00:21;0.40;;;0.30;;
58878;SDS011;44660;42.664;23.266;2023-08-06T20:02:47;0.50;;;0.20;;
58878;SDS011;44660;42.664;23.266;2023-08-06T20:05:12;2.25;;;0.50;;
58878;SDS011;44660;42.664;23.266;2023-08-06T20:07:38;0.40;;;0.20;;
58878;SDS011;44660;42.664;23.266;2023-08-06T20:10:03;0.57;;;0.38;;
58878;SDS011;44660;42.664;23.266;2023-08-06T20:12:29;1.92;;;0.30;;
58878;SDS011;44660;42.664;23.266;2023-08-06T20:14:55;0.40;;;0.40;;
58878;SDS011;44660;42.664;23.266;2023-08-06T20:17:20;2.90;;;0.45;;
58878;SDS011;44660;42.664;23.266;2023-08-06T20:19:45;1.17;;;0.60;;
58878;SDS011;44660;42.664;23.266;2023-08-06T20:22:11;0.93;;;0.40;;
58878;SDS011;44660;42.664;23.266;2023-08-06T20:24:37;0.30;;;0.30;;
58878;SDS011;44660;42.664;23.266;2023-08-06T20:27:02;1.27;;;0.40;;
58878;SDS011;44660;42.664;23.266;2023-08-06T20:29:28;2.30;;;1.10;;
58878;SDS011;44660;42.664;23.266;2023-08-06T20:31:54;0.90;;;0.68;;
58878;SDS011;44660;42.664;23.266;2023-08-06T20:34:19;1.50;;;0.50;;
58878;SDS011;44660;42.664;23.266;2023-08-06T20:36:45;1.95;;;0.52;;
58878;SDS011;44660;42.664;23.266;2023-08-06T20:39:10;0.63;;;0.47;;
58878;SDS011;44660;42.664;23.266;2023-08-06T20:41:36;1.52;;;0.45;;
58878;SDS011;44660;42.664;23.266;2023-08-06T20:44:02;1.42;;;0.52;;
58878;SDS011;44660;42.664;23.266;2023-08-06T20:46:27;0.65;;;0.50;;
58878;SDS011;44660;42.664;23.266;2023-08-06T20:48:53;0.70;;;0.47;;
58878;SDS011;44660;42.664;23.266;2023-08-06T20:51:18;0.45;;;0.45;;
58878;SDS011;44660;42.664;23.266;2023-08-06T20:53:44;1.83;;;0.60;;
58878;SDS011;44660;42.664;23.266;2023-08-06T20:56:09;1.38;;;0.32;;
58878;SDS011;44660;42.664;23.266;2023-08-06T20:58:35;0.70;;;0.50;;
58878;SDS011;44660;42.664;23.266;2023-08-06T21:01:01;1.45;;;0.70;;
58878;SDS011;44660;42.664;23.266;2023-08-06T21:03:26;1.80;;;0.43;;
58878;SDS011;44660;42.664;23.266;2023-08-06T21:05:59;0.50;;;0.50;;
58878;SDS011;44660;42.664;23.266;2023-08-06T21:08:29;0.88;;;0.70;;
58878;SDS011;44660;42.664;23.266;2023-08-06T21:10:55;1.15;;;0.70;;
58878;SDS011;44660;42.664;23.266;2023-08-06T21:13:20;0.52;;;0.52;;
58878;SDS011;44660;42.664;23.266;2023-08-06T21:15:46;0.77;;;0.50;;
58878;SDS011;44660;42.664;23.266;2023-08-06T21:18:18;1.92;;;0.60;;
58878;SDS011;44660;42.664;23.266;2023-08-06T21:20:43;1.52;;;0.70;;
58878;SDS011;44660;42.664;23.266;2023-08-06T21:23:09;1.52;;;0.63;;
58878;SDS011;44660;42.664;23.266;2023-08-06T21:25:34;0.88;;;0.50;;
58878;SDS011;44660;42.664;23.266;2023-08-06T21:28:00;1.25;;;0.50;;
58878;SDS011;44660;42.664;23.266;2023-08-06T21:30:29;0.90;;;0.60;;
58878;SDS011;44660;42.664;23.266;2023-08-06T21:32:55;0.50;;;0.50;;
58878;SDS011;44660;42.664;23.266;2023-08-06T21:35:20;0.98;;;0.57;;
58878;SDS011;44660;42.664;23.266;2023-08-06T21:37:46;2.72;;;0.50;;
58878;SDS011;44660;42.664;23.266;2023-08-06T21:40:11;1.50;;;0.65;;
58878;SDS011;44660;42.664;23.266;2023-08-06T21:42:37;0.90;;;0.60;;
58878;SDS011;44660;42.664;23.266;2023-08-06T21:45:02;1.05;;;0.73;;
58878;SDS011;44660;42.664;23.266;2023-08-06T21:47:28;1.52;;;0.50;;
58878;SDS011;44660;42.664;23.266;2023-08-06T21:49:54;0.85;;;0.70;;
58878;SDS011;44660;42.664;23.266;2023-08-06T21:52:19;0.60;;;0.60;;
58878;SDS011;44660;42.664;23.266;2023-08-06T21:54:44;1.85;;;0.55;;
58878;SDS011;44660;42.664;23.266;2023-08-06T21:57:10;1.15;;;0.63;;
58878;SDS011;44660;42.664;23.266;2023-08-06T21:59:35;0.77;;;0.50;;
58878;SDS011;44660;42.664;23.266;2023-08-06T22:02:00;0.77;;;0.77;;
58878;SDS011;44660;42.664;23.266;2023-08-06T22:04:26;0.47;;;0.47;;
58878;SDS011;44660;42.664;23.266;2023-08-06T22:06:52;1.10;;;0.60;;
58878;SDS011;44660;42.664;23.266;2023-08-06T22:09:17;0.90;;;0.82;;
58878;SDS011;44660;42.664;23.266;2023-08-06T22:11:43;2.45;;;0.60;;
58878;SDS011;44660;42.664;23.266;2023-08-06T22:14:08;1.85;;;0.60;;
58878;SDS011;44660;42.664;23.266;2023-08-06T22:16:33;0.90;;;0.52;;
58878;SDS011;44660;42.664;23.266;2023-08-06T22:18:59;0.60;;;0.60;;
58878;SDS011;44660;42.664;23.266;2023-08-06T22:21:25;3.17;;;0.68;;
58878;SDS011;44660;42.664;23.266;2023-08-06T22:23:50;0.75;;;0.75;;
58878;SDS011;44660;42.664;23.266;2023-08-06T22:26:16;1.52;;;0.52;;
58878;SDS011;44660;42.664;23.266;2023-08-06T22:28:41;0.68;;;0.68;;
58878;SDS011;44660;42.664;23.266;2023-08-06T22:31:07;2.45;;;1.20;;
58878;SDS011;44660;42.664;23.266;2023-08-06T22:33:32;1.17;;;0.73;;
58878;SDS011;44660;42.664;23.266;2023-08-06T22:35:58;0.70;;;0.70;;
58878;SDS011;44660;42.664;23.266;2023-08-06T22:38:23;2.13;;;0.60;;
58878;SDS011;44660;42.664;23.266;2023-08-06T22:40:49;1.45;;;0.70;;